Time;durP1;ratioP1;P1;durP2;ratioP2;P2;SDS_P1;SDS_P2;PMS_P1;PMS_P2;Temp;Humidity;BMP_temperature;BMP_pressure;BME280_temperature;BME280_humidity;BME280_pressure;Samples;Min_cycle;Max_cycle;Signal;HPM_P1;HPM_P2
2021/12/26 00:00:26;;;;;;;24.37;13.10;;;;;;;1.47;100.00;95210.50;5051280;28;20037;-78
2021/12/26 00:02:52;;;;;;;21.17;12.23;;;;;;;1.40;100.00;95207.59;5045654;28;20428;-78
2021/12/26 00:05:18;;;;;;;20.07;11.77;;;;;;;1.41;100.00;95208.44;5033860;28;20037;-78
2021/12/26 00:07:44;;;;;;;23.50;12.37;;;;;;;1.29;100.00;95210.28;5050437;28;20068;-78
2021/12/26 00:10:13;;;;;;;22.80;13.03;;;;;;;1.29;100.00;95202.50;5033359;28;20035;-83
2021/12/26 00:12:39;;;;;;;19.00;11.23;;;;;;;1.37;100.00;95197.50;5033362;28;20038;-78
2021/12/26 00:15:06;;;;;;;18.77;10.97;;;;;;;1.28;100.00;95200.06;5032912;28;20599;-78
2021/12/26 00:17:32;;;;;;;20.23;11.00;;;;;;;1.32;100.00;95201.44;5034402;28;20086;-78
2021/12/26 00:19:58;;;;;;;18.90;10.50;;;;;;;1.34;100.00;95204.69;5050000;28;20413;-78
2021/12/26 00:22:24;;;;;;;17.90;10.77;;;;;;;1.37;100.00;95209.63;5030523;28;20036;-78
2021/12/26 00:24:51;;;;;;;16.73;9.47;;;;;;;1.40;100.00;95217.16;5047959;28;20021;-78
2021/12/26 00:27:19;;;;;;;19.43;10.17;;;;;;;1.42;100.00;95212.66;5033427;28;20032;-78
2021/12/26 00:29:47;;;;;;;17.00;9.70;;;;;;;1.42;100.00;95212.66;5037055;28;20486;-78
2021/12/26 00:32:14;;;;;;;15.63;9.77;;;;;;;1.39;100.00;95205.97;5037576;28;20095;-78
2021/12/26 00:34:40;;;;;;;18.07;9.90;;;;;;;1.36;100.00;95203.63;5037930;28;20351;-78
2021/12/26 00:37:07;;;;;;;18.77;10.17;;;;;;;1.32;100.00;95209.22;5061097;28;20035;-78
2021/12/26 00:39:35;;;;;;;17.47;10.30;;;;;;;1.37;100.00;95214.81;5054900;28;20637;-80
2021/12/26 00:42:02;;;;;;;15.40;9.60;;;;;;;1.46;100.00;95210.66;5052832;28;20032;-80
2021/12/26 00:44:27;;;;;;;16.93;8.93;;;;;;;1.50;100.00;95217.19;5037125;28;20040;-77
2021/12/26 00:46:56;;;;;;;16.10;9.73;;;;;;;1.49;100.00;95212.97;5047498;28;20024;-79
2021/12/26 00:49:22;;;;;;;17.43;9.03;;;;;;;1.45;100.00;95211.59;5036475;28;20406;-78
2021/12/26 00:51:50;;;;;;;14.90;8.23;;;;;;;1.52;100.00;95218.72;5038046;28;20029;-78
2021/12/26 00:54:16;;;;;;;16.43;8.30;;;;;;;1.59;100.00;95212.06;5035381;28;20123;-78
2021/12/26 00:56:42;;;;;;;14.97;8.50;;;;;;;1.58;100.00;95220.81;5027846;28;20029;-78
2021/12/26 00:59:09;;;;;;;15.70;8.23;;;;;;;1.49;100.00;95218.97;5037045;28;20690;-78
2021/12/26 01:01:34;;;;;;;14.07;8.10;;;;;;;1.53;100.00;95220.34;5038537;28;20094;-77
2021/12/26 01:04:00;;;;;;;13.17;7.80;;;;;;;1.54;100.00;95221.16;5034649;28;20029;-78
2021/12/26 01:06:28;;;;;;;13.73;8.37;;;;;;;1.53;100.00;95210.00;5053583;28;20104;-78
2021/12/26 01:08:54;;;;;;;14.10;8.10;;;;;;;1.49;100.00;95216.38;5044981;28;20792;-78
2021/12/26 01:11:36;;;;;;;13.50;7.83;;;;;;;1.47;100.00;95213.09;5062121;28;20024;-78
2021/12/26 01:14:06;;;;;;;14.83;8.00;;;;;;;1.34;100.00;95213.31;5048513;28;20685;-78
2021/12/26 01:16:46;;;;;;;13.20;8.07;;;;;;;1.43;100.00;95214.31;5055466;28;20036;-78
2021/12/26 01:19:15;;;;;;;14.77;8.87;;;;;;;1.43;100.00;95214.31;5048731;28;20021;-77
2021/12/26 01:21:44;;;;;;;15.23;9.10;;;;;;;1.37;100.00;95218.22;5038205;28;20056;-78
2021/12/26 01:24:15;;;;;;;;;;;;;;;1.29;100.00;95217.22;5039117;28;20033;-78
2021/12/26 01:26:42;;;;;;;18.23;9.87;;;;;;;1.27;100.00;95213.94;5057944;28;20377;-77
2021/12/26 01:29:09;;;;;;;17.10;8.97;;;;;;;1.27;100.00;95217.34;5053326;28;20036;-78
2021/12/26 01:31:39;;;;;;;18.13;10.23;;;;;;;1.23;100.00;95220.31;5045022;28;20498;-78
2021/12/26 01:34:25;;;;;;;18.50;10.63;;;;;;;1.11;100.00;95219.59;5048064;28;20041;-79
2021/12/26 01:37:10;;;;;;;19.80;11.43;;;;;;;1.15;100.00;95216.59;5047549;28;20117;-78
2021/12/26 01:39:59;;;;;;;20.93;11.30;;;;;;;1.12;100.00;95216.03;5051418;28;20037;-78
2021/12/26 01:42:54;;;;;;;21.60;11.23;;;;;;;1.13;100.00;95221.06;5043675;28;20033;-78
2021/12/26 01:45:56;;;;;;;21.90;10.93;;;;;;;1.16;100.00;95218.25;5036140;28;20459;-78
2021/12/26 01:48:23;;;;;;;20.40;11.77;;;;;;;1.10;100.00;95218.75;5040607;28;20102;-78
2021/12/26 01:50:51;;;;;;;19.57;10.93;;;;;;;1.16;100.00;95212.25;5039139;28;20037;-78
2021/12/26 01:53:19;;;;;;;17.17;10.23;;;;;;;1.15;100.00;95216.59;5037009;28;20048;-78
2021/12/26 01:55:46;;;;;;;19.07;11.73;;;;;;;1.11;100.00;95215.22;5039082;28;20132;-77
2021/12/26 01:58:18;;;;;;;19.43;11.23;;;;;;;1.20;100.00;95212.81;5053912;28;20047;-78
2021/12/26 02:00:49;;;;;;;21.47;11.97;;;;;;;1.23;100.00;95215.97;5050097;28;20675;-78
2021/12/26 02:03:15;;;;;;;19.67;11.03;;;;;;;1.26;100.00;95220.88;5032701;28;20033;-79
2021/12/26 02:05:43;;;;;;;22.27;11.53;;;;;;;1.25;100.00;95214.09;5052195;28;20032;-80
2021/12/26 02:08:11;;;;;;;20.27;11.80;;;;;;;1.26;100.00;95217.47;5035642;28;20112;-78
2021/12/26 02:10:39;;;;;;;19.97;11.57;;;;;;;1.20;100.00;95223.16;5052448;28;20033;-80
2021/12/26 02:13:05;;;;;;;21.33;12.40;;;;;;;1.14;100.00;95219.31;5040993;28;20108;-78
2021/12/26 02:15:31;;;;;;;20.43;12.30;;;;;;;1.08;100.00;95228.41;5038219;28;20547;-79
2021/12/26 02:18:07;;;;;;;22.23;12.47;;;;;;;1.02;100.00;95226.31;5047450;28;20051;-78
2021/12/26 02:23:20;;;;;;;27.07;14.93;;;;;;;0.98;100.00;95222.34;5057303;28;20063;-78
2021/12/26 02:28:17;;;;;;;26.03;14.57;;;;;;;1.01;100.00;95224.69;5047792;28;20677;-78
2021/12/26 02:30:44;;;;;;;27.20;14.80;;;;;;;1.00;100.00;95225.63;5035631;28;20530;-78
2021/12/26 02:33:11;;;;;;;26.70;15.77;;;;;;;0.94;100.00;95220.97;5051196;28;20035;-78
2021/12/26 02:35:39;;;;;;;25.73;14.77;;;;;;;0.90;100.00;95217.78;5033086;28;20037;-78
2021/12/26 02:38:06;;;;;;;28.30;15.20;;;;;;;0.90;100.00;95222.13;5031421;28;20463;-78
2021/12/26 02:40:32;;;;;;;28.80;15.80;;;;;;;0.93;100.00;95224.47;5032047;28;20453;-78
2021/12/26 02:42:58;;;;;;;29.80;16.17;;;;;;;0.97;100.00;95217.28;5047161;28;20726;-79
2021/12/26 02:45:24;;;;;;;26.30;14.43;;;;;;;1.05;100.00;95220.91;5033444;28;20207;-79
2021/12/26 02:47:51;;;;;;;29.50;15.73;;;;;;;0.97;100.00;95219.88;5034052;28;20028;-78
2021/12/26 02:50:23;;;;;;;26.77;15.07;;;;;;;1.02;100.00;95207.38;5038576;28;20036;-79
2021/12/26 02:52:50;;;;;;;29.17;16.97;;;;;;;0.87;100.00;95212.88;5036177;28;20117;-77
2021/12/26 02:55:19;;;;;;;27.87;15.80;;;;;;;0.88;100.00;95218.88;5034151;28;20483;-78
2021/12/26 02:57:50;;;;;;;28.67;15.73;;;;;;;0.88;100.00;95209.34;5036779;28;20098;-78
2021/12/26 03:00:20;;;;;;;31.63;17.97;;;;;;;0.95;100.00;95212.25;5045060;28;20024;-78
2021/12/26 03:02:48;;;;;;;28.53;16.03;;;;;;;0.90;100.00;95209.19;5042129;28;21260;-81
2021/12/26 03:05:15;;;;;;;28.17;16.83;;;;;;;0.93;100.00;95214.94;5048455;28;20025;-78
2021/12/26 03:07:41;;;;;;;28.00;16.47;;;;;;;0.99;100.00;95216.22;5034583;28;20033;-77
2021/12/26 03:10:11;;;;;;;29.63;17.37;;;;;;;0.99;100.00;95215.41;5050123;28;20099;-79
2021/12/26 03:12:41;;;;;;;31.63;17.20;;;;;;;0.94;100.00;95213.19;5049431;28;20040;-78
2021/12/26 03:15:10;;;;;;;31.27;16.53;;;;;;;0.94;100.00;95213.19;5032725;28;20463;-78
2021/12/26 03:17:38;;;;;;;30.33;16.40;;;;;;;0.98;100.00;95213.78;5032259;28;20459;-78
2021/12/26 03:20:13;;;;;;;36.30;21.27;;;;;;;0.93;100.00;95216.72;5049400;28;20017;-78
2021/12/26 03:22:39;;;;;;;39.43;22.17;;;;;;;0.97;100.00;95218.09;5033154;28;20780;-79
2021/12/26 03:25:11;;;;;;;31.90;18.23;;;;;;;0.93;100.00;95212.34;5032238;28;20501;-78
2021/12/26 03:27:37;;;;;;;32.93;18.23;;;;;;;0.94;100.00;95218.38;5031846;28;20068;-78
2021/12/26 03:30:06;;;;;;;29.20;16.53;;;;;;;1.02;100.00;95215.16;5033031;28;20445;-78
2021/12/26 03:32:34;;;;;;;31.27;16.37;;;;;;;0.89;100.00;95225.69;5033229;28;20029;-78
2021/12/26 03:35:00;;;;;;;30.37;17.77;;;;;;;0.84;100.00;95225.22;5028812;28;20029;-77
2021/12/26 03:37:25;;;;;;;29.93;16.77;;;;;;;0.90;100.00;95216.97;5054624;28;20028;-80
2021/12/26 03:39:52;;;;;;;30.10;16.73;;;;;;;0.97;100.00;95217.28;5038852;28;20036;-78
2021/12/26 03:42:21;;;;;;;31.03;17.47;;;;;;;0.93;100.00;95214.13;5038025;28;20025;-78
2021/12/26 03:44:49;;;;;;;29.57;16.70;;;;;;;0.92;100.00;95220.25;5027296;28;20021;-78
2021/12/26 03:47:16;;;;;;;29.73;16.47;;;;;;;0.89;100.00;95215.34;5027322;28;20067;-79
2021/12/26 03:49:47;;;;;;;28.67;16.33;;;;;;;0.88;100.00;95219.69;5032072;28;20031;-77
2021/12/26 03:52:13;;;;;;;29.13;16.13;;;;;;;0.86;100.00;95220.75;5053968;28;20032;-80
2021/12/26 03:54:41;;;;;;;29.30;17.60;;;;;;;0.86;100.00;95216.41;5024437;28;20932;-78
2021/12/26 03:57:07;;;;;;;31.30;16.57;;;;;;;0.84;100.00;95222.63;5035351;28;20030;-78
2021/12/26 03:59:33;;;;;;;30.97;15.13;;;;;;;0.77;100.00;95222.34;5035944;28;20078;-79
2021/12/26 04:01:59;;;;;;;33.47;17.70;;;;;;;0.81;100.00;95233.25;5030604;28;20037;-78
2021/12/26 04:04:28;;;;;;;32.27;17.33;;;;;;;0.77;100.00;95229.25;5047774;28;20065;-78
2021/12/26 04:06:53;;;;;;;32.90;17.70;;;;;;;0.77;100.00;95219.75;5035646;28;20564;-77
2021/12/26 04:09:19;;;;;;;31.87;16.53;;;;;;;0.81;100.00;95222.91;5053959;28;20060;-79
2021/12/26 04:11:46;;;;;;;34.43;18.47;;;;;;;0.82;100.00;95229.72;5036784;28;20438;-78
2021/12/26 04:14:16;;;;;;;34.57;18.07;;;;;;;0.80;100.00;95226.41;5034304;28;20037;-78
2021/12/26 04:16:42;;;;;;;33.20;17.00;;;;;;;0.80;100.00;95234.19;5051626;28;20526;-79
2021/12/26 04:19:08;;;;;;;31.13;16.80;;;;;;;0.88;100.00;95234.41;5035920;28;20112;-76
2021/12/26 04:21:35;;;;;;;29.53;15.87;;;;;;;0.84;100.00;95238.16;5050662;28;20517;-76
2021/12/26 04:24:03;;;;;;;29.80;16.83;;;;;;;0.79;100.00;95233.38;5027908;28;20021;-79
2021/12/26 04:26:29;;;;;;;35.97;18.20;;;;;;;0.78;100.00;95238.69;5042163;28;20040;-76
2021/12/26 04:28:55;;;;;;;28.67;15.63;;;;;;;0.83;100.00;95239.13;5033643;28;20095;-76
2021/12/26 04:31:21;;;;;;;31.77;17.13;;;;;;;0.77;100.00;95226.66;5036973;28;21031;-76
2021/12/26 04:33:49;;;;;;;33.03;17.07;;;;;;;0.69;100.00;95238.47;5045961;28;20018;-76
2021/12/26 04:36:14;;;;;;;32.37;16.77;;;;;;;0.67;100.00;95232.59;5033873;28;20490;-76
2021/12/26 04:38:42;;;;;;;30.00;15.93;;;;;;;0.68;100.00;95223.06;5034445;28;20051;-81
2021/12/26 04:41:10;;;;;;;35.57;17.70;;;;;;;0.67;100.00;95229.19;5068027;28;20025;-81
2021/12/26 04:43:55;;;;;;;33.40;17.50;;;;;;;0.60;100.00;95230.63;5062973;28;20021;-81
2021/12/26 04:46:40;;;;;;;34.60;17.53;;;;;;;0.62;100.00;95220.97;5038893;28;20463;-81
2021/12/26 04:49:12;;;;;;;35.77;17.27;;;;;;;0.70;100.00;95226.34;5034082;28;20561;-76
2021/12/26 04:51:38;;;;;;;33.37;16.67;;;;;;;0.72;100.00;95221.88;5031957;28;20463;-78
2021/12/26 04:54:05;;;;;;;30.20;16.10;;;;;;;0.76;100.00;95225.84;5031109;28;20548;-81
2021/12/26 04:56:32;;;;;;;32.70;16.80;;;;;;;0.70;100.00;95227.19;5034295;28;20475;-80
2021/12/26 04:58:58;;;;;;;33.50;16.80;;;;;;;0.70;100.00;95229.78;5040106;28;20029;-81
2021/12/26 05:01:23;;;;;;;32.30;17.27;;;;;;;0.65;100.00;95234.47;5055360;28;20033;-81
2021/12/26 05:03:49;;;;;;;36.40;17.07;;;;;;;0.70;100.00;95232.38;5041875;28;20052;-81
2021/12/26 05:06:15;;;;;;;31.40;16.47;;;;;;;0.70;100.00;95231.50;5040401;28;20029;-81
2021/12/26 05:08:41;;;;;;;34.30;16.83;;;;;;;0.65;100.00;95237.06;5039334;28;20086;-81
2021/12/26 05:11:07;;;;;;;35.70;18.17;;;;;;;0.66;100.00;95240.47;5038067;28;20168;-79
2021/12/26 05:13:32;;;;;;;32.73;15.87;;;;;;;0.60;100.00;95236.59;5049280;28;20059;-81
2021/12/26 05:15:58;;;;;;;32.63;17.73;;;;;;;0.61;100.00;95243.44;5054308;28;20036;-80
2021/12/26 05:18:24;;;;;;;32.47;17.43;;;;;;;0.61;100.00;95243.44;5039623;28;20041;-81
2021/12/26 05:20:56;;;;;;;32.57;15.90;;;;;;;0.63;100.00;95248.47;5036873;28;20033;-81
2021/12/26 05:23:23;;;;;;;35.27;18.23;;;;;;;0.61;100.00;95245.22;5051905;28;20530;-81
2021/12/26 05:25:49;;;;;;;40.47;20.43;;;;;;;0.63;100.00;95240.72;5042720;28;20468;-81
2021/12/26 05:28:22;;;;;;;35.87;17.70;;;;;;;0.64;100.00;95239.78;5037576;28;20550;-80
2021/12/26 05:30:49;;;;;;;36.23;17.30;;;;;;;0.67;100.00;95237.78;5044818;28;20028;-80
2021/12/26 05:33:25;;;;;;;32.53;15.77;;;;;;;0.74;100.00;95235.53;5039901;28;20478;-81
2021/12/26 05:35:55;;;;;;;30.07;15.83;;;;;;;0.77;100.00;95242.19;5048475;28;20128;-80
2021/12/26 05:38:25;;;;;;;29.37;15.17;;;;;;;0.80;100.00;95245.34;5044910;28;20455;-81
2021/12/26 05:40:52;;;;;;;30.57;15.70;;;;;;;0.84;100.00;95232.97;5037768;28;20505;-81
2021/12/26 05:43:19;;;;;;;25.50;14.27;;;;;;;0.78;100.00;95236.09;5035512;28;20440;-81
2021/12/26 05:45:44;;;;;;;28.97;14.53;;;;;;;0.80;100.00;95247.13;5044794;28;20462;-81
2021/12/26 05:48:22;;;;;;;29.83;14.37;;;;;;;0.79;100.00;95242.91;5042965;28;20111;-81
2021/12/26 05:50:49;;;;;;;24.97;13.10;;;;;;;0.87;100.00;95237.91;5047647;28;21073;-81
2021/12/26 05:53:41;;;;;;;29.83;15.33;;;;;;;0.84;100.00;95232.97;5046072;28;20042;-81
2021/12/26 05:56:08;;;;;;;27.23;14.07;;;;;;;0.87;100.00;95235.31;5040129;28;20534;-78
2021/12/26 05:58:34;;;;;;;28.73;14.90;;;;;;;0.85;100.00;95240.66;5038364;28;20721;-78
2021/12/26 06:01:02;;;;;;;27.90;14.67;;;;;;;0.84;100.00;95232.97;5033410;28;20025;-76
2021/12/26 06:03:28;;;;;;;29.63;15.93;;;;;;;0.81;100.00;95238.44;5034845;28;20028;-78
2021/12/26 06:05:54;;;;;;;27.03;14.90;;;;;;;0.81;100.00;95233.25;5034257;28;20036;-78
2021/12/26 06:08:26;;;;;;;26.57;14.23;;;;;;;0.83;100.00;95242.53;5040180;28;20037;-78
2021/12/26 06:10:52;;;;;;;26.57;14.30;;;;;;;0.88;100.00;95239.59;5044518;28;20036;-78
2021/12/26 06:13:18;;;;;;;27.17;13.90;;;;;;;0.82;100.00;95240.88;5034606;28;20022;-78
2021/12/26 06:15:44;;;;;;;25.23;12.83;;;;;;;0.78;100.00;95238.69;5051532;28;20036;-78
2021/12/26 06:18:10;;;;;;;23.80;13.23;;;;;;;0.85;100.00;95240.66;5038116;28;20040;-78
2021/12/26 06:20:55;;;;;;;27.47;13.47;;;;;;;0.75;100.00;95236.34;5052690;28;20472;-78
2021/12/26 06:23:50;;;;;;;24.90;14.20;;;;;;;0.82;100.00;95237.47;5058390;28;20045;-79
2021/12/26 06:26:35;;;;;;;24.03;13.47;;;;;;;0.81;100.00;95228.09;5054058;28;20048;-78
2021/12/26 06:29:09;;;;;;;26.50;13.60;;;;;;;0.88;100.00;95237.00;5037781;28;20097;-78
2021/12/26 06:31:35;;;;;;;25.87;13.97;;;;;;;0.78;100.00;95228.34;5055083;28;20455;-78
2021/12/26 06:34:19;;;;;;;27.43;15.87;;;;;;;0.75;100.00;95233.75;5049390;28;20036;-78
2021/12/26 06:37:10;;;;;;;26.27;14.13;;;;;;;0.68;100.00;95236.84;5065660;28;20040;-78
2021/12/26 06:40:03;;;;;;;31.37;16.43;;;;;;;0.69;100.00;95241.06;5048694;28;20033;-78
2021/12/26 06:42:58;;;;;;;26.00;15.00;;;;;;;0.69;100.00;95237.66;5050524;28;20479;-78
2021/12/26 06:46:02;;;;;;;25.73;13.95;;;;;;;0.72;100.00;95245.16;5027247;28;20037;-78
2021/12/26 06:48:48;;;;;;;24.47;12.57;;;;;;;0.75;100.00;95239.75;5044968;28;20045;-78
2021/12/26 06:51:14;;;;;;;25.63;12.90;;;;;;;0.86;100.00;95238.88;5034779;28;21029;-79
2021/12/26 06:53:41;;;;;;;25.37;13.13;;;;;;;0.80;100.00;95239.38;5038130;28;20029;-77
2021/12/26 06:56:08;;;;;;;21.40;11.57;;;;;;;0.83;100.00;95247.69;5042821;28;20036;-77
2021/12/26 06:58:33;;;;;;;20.27;11.47;;;;;;;0.83;100.00;95242.53;5055391;28;20451;-79
2021/12/26 07:00:59;;;;;;;20.63;10.47;;;;;;;0.79;100.00;95251.50;5038396;28;20029;-79
2021/12/26 07:03:25;;;;;;;24.30;12.27;;;;;;;0.87;100.00;95249.13;5032989;28;20033;-78
2021/12/26 07:05:51;;;;;;;18.90;11.13;;;;;;;0.78;100.00;95251.63;5036507;28;21050;-78
2021/12/26 07:08:23;;;;;;;18.73;10.90;;;;;;;0.80;100.00;95262.66;5039635;28;20441;-78
2021/12/26 07:10:56;;;;;;;22.30;12.13;;;;;;;0.76;100.00;95261.25;5052221;28;20453;-78
2021/12/26 07:13:23;;;;;;;21.87;12.00;;;;;;;0.65;100.00;95268.13;5045928;28;20546;-78
2021/12/26 07:15:51;;;;;;;21.90;11.97;;;;;;;0.68;100.00;95267.88;5057989;28;20286;-78
2021/12/26 07:18:18;;;;;;;25.40;12.50;;;;;;;0.66;100.00;95267.16;5034812;28;20468;-78
2021/12/26 07:20:45;;;;;;;22.57;12.53;;;;;;;0.67;100.00;95266.25;5036391;28;20471;-79
2021/12/26 07:23:14;;;;;;;23.17;10.80;;;;;;;0.67;100.00;95267.97;5054153;28;20432;-77
2021/12/26 07:25:43;;;;;;;24.23;11.90;;;;;;;0.64;100.00;95271.66;5042824;28;20464;-78
2021/12/26 07:28:09;;;;;;;22.57;11.43;;;;;;;0.61;100.00;95277.06;5057186;28;20495;-78
2021/12/26 07:30:58;;;;;;;23.37;12.03;;;;;;;0.60;100.00;95272.81;5056348;28;20452;-80
2021/12/26 07:33:24;;;;;;;23.13;12.67;;;;;;;0.54;100.00;95273.34;5066558;28;20487;-78
2021/12/26 07:35:57;;;;;;;22.50;12.20;;;;;;;0.62;100.00;95270.13;5037979;28;20482;-78
2021/12/26 07:38:42;;;;;;;26.63;13.57;;;;;;;0.59;100.00;95262.63;5053188;28;20808;-79
2021/12/26 07:41:09;;;;;;;24.37;12.33;;;;;;;0.64;100.00;95274.25;5040166;28;20471;-78
2021/12/26 07:43:37;;;;;;;25.27;12.30;;;;;;;0.63;100.00;95277.75;5046720;28;20499;-78
2021/12/26 07:46:34;;;;;;;25.50;12.67;;;;;;;0.60;100.00;95275.41;5045363;28;20448;-79
2021/12/26 07:49:05;;;;;;;21.90;12.23;;;;;;;0.62;100.00;95268.38;5050962;28;20590;-78
2021/12/26 07:51:51;;;;;;;22.70;11.80;;;;;;;0.62;100.00;95268.38;5051057;28;20828;-77
2021/12/26 07:54:35;;;;;;;23.27;12.03;;;;;;;0.61;100.00;95276.25;5047215;28;20452;-78
2021/12/26 07:57:24;;;;;;;21.23;12.00;;;;;;;0.63;100.00;95277.75;5037877;28;20526;-78
2021/12/26 08:00:28;;;;;;;22.83;11.27;;;;;;;0.69;100.00;95277.28;5057164;28;20451;-78
2021/12/26 08:02:55;;;;;;;21.27;11.43;;;;;;;0.73;100.00;95277.84;5048596;28;20123;-77
2021/12/26 08:05:40;;;;;;;19.07;10.67;;;;;;;0.78;100.00;95293.03;5051161;28;20087;-78
2021/12/26 08:08:29;;;;;;;19.20;10.20;;;;;;;0.81;100.00;95292.78;5043191;28;21009;-78
2021/12/26 08:10:55;;;;;;;18.47;10.73;;;;;;;0.85;100.00;95291.59;5032008;28;20468;-80
2021/12/26 08:13:21;;;;;;;18.90;9.53;;;;;;;0.86;100.00;95296.63;5035919;28;20029;-78
2021/12/26 08:15:46;;;;;;;19.80;10.50;;;;;;;0.87;100.00;95293.13;5028911;28;20036;-78
2021/12/26 08:18:12;;;;;;;18.57;9.90;;;;;;;0.93;100.00;95299.53;5039507;28;20040;-75
2021/12/26 08:20:38;;;;;;;16.63;9.23;;;;;;;0.92;100.00;95298.72;5031478;28;20257;-77
2021/12/26 08:23:04;;;;;;;18.10;10.53;;;;;;;0.89;100.00;95282.63;5039479;28;20037;-81
2021/12/26 08:25:30;;;;;;;18.30;10.13;;;;;;;0.89;100.00;95285.22;5051342;28;20025;-81
2021/12/26 08:27:56;;;;;;;16.63;8.80;;;;;;;0.90;100.00;95292.84;5030162;28;20455;-77
2021/12/26 08:30:24;;;;;;;22.63;11.97;;;;;;;0.84;100.00;95289.94;5031255;28;20033;-77
2021/12/26 08:32:53;;;;;;;21.73;11.17;;;;;;;0.86;100.00;95295.81;5045784;28;20020;-75
2021/12/26 08:35:19;;;;;;;19.03;9.90;;;;;;;0.94;100.00;95290.84;5029349;28;20464;-75
2021/12/26 08:37:47;;;;;;;20.23;10.77;;;;;;;1.05;100.00;95287.41;5046937;28;20464;-81
2021/12/26 08:40:15;;;;;;;20.47;11.73;;;;;;;1.05;100.00;95292.56;5035378;28;20018;-81
2021/12/26 08:42:40;;;;;;;19.20;10.33;;;;;;;1.10;100.00;95290.41;5049051;28;20591;-81
2021/12/26 08:45:08;;;;;;;18.43;10.93;;;;;;;1.02;100.00;95291.06;5037211;28;20483;-78
2021/12/26 08:47:34;;;;;;;23.23;11.50;;;;;;;1.05;100.00;95292.56;5039912;28;20037;-77
2021/12/26 08:50:00;;;;;;;18.97;11.27;;;;;;;1.04;100.00;95294.34;5033528;28;20055;-78
2021/12/26 08:52:26;;;;;;;19.33;11.13;;;;;;;1.05;100.00;95298.56;5034607;28;20079;-78
2021/12/26 08:54:52;;;;;;;18.83;10.43;;;;;;;1.01;100.00;95302.38;5039129;28;20064;-78
2021/12/26 08:57:17;;;;;;;23.07;12.53;;;;;;;1.09;100.00;95305.13;5018607;28;20033;-76
2021/12/26 08:59:43;;;;;;;21.83;11.43;;;;;;;1.04;100.00;95307.28;5043627;28;20538;-78
2021/12/26 09:02:10;;;;;;;22.60;13.40;;;;;;;1.13;100.00;95303.94;5038697;28;20025;-79
2021/12/26 09:04:37;;;;;;;22.57;13.03;;;;;;;1.10;100.00;95300.78;5034557;28;20546;-77
2021/12/26 09:07:04;;;;;;;23.80;12.23;;;;;;;1.13;100.00;95305.72;5038642;28;20824;-82
2021/12/26 09:09:29;;;;;;;30.17;15.53;;;;;;;1.17;100.00;95297.59;5034593;28;20526;-82
2021/12/26 09:11:58;;;;;;;25.10;13.40;;;;;;;1.20;100.00;95301.66;5036379;28;20041;-78
2021/12/26 09:14:30;;;;;;;18.67;11.57;;;;;;;1.22;100.00;95302.38;5054862;28;20497;-78
2021/12/26 09:16:57;;;;;;;25.00;12.63;;;;;;;1.28;100.00;95301.88;5039865;28;20041;-78
2021/12/26 09:19:27;;;;;;;20.27;12.17;;;;;;;1.30;100.00;95305.16;5055404;28;20021;-77
2021/12/26 09:21:54;;;;;;;22.90;13.97;;;;;;;1.33;100.00;95304.09;5057084;28;20021;-79
2021/12/26 09:24:19;;;;;;;21.90;13.20;;;;;;;1.42;100.00;95306.75;5038463;28;20104;-82
2021/12/26 09:26:45;;;;;;;24.93;13.37;;;;;;;1.50;100.00;95313.88;5029302;28;20197;-77
2021/12/26 09:29:11;;;;;;;18.77;10.53;;;;;;;1.47;100.00;95314.13;5048035;28;20029;-77
2021/12/26 09:31:36;;;;;;;16.03;9.77;;;;;;;1.59;100.00;95305.34;5050821;28;20028;-77
2021/12/26 09:34:02;;;;;;;20.33;10.60;;;;;;;1.59;100.00;95314.91;5025255;28;20116;-77
2021/12/26 09:36:28;;;;;;;16.70;9.40;;;;;;;1.52;100.00;95322.38;5041367;28;20037;-77
2021/12/26 09:38:54;;;;;;;17.77;10.20;;;;;;;1.52;100.00;95314.59;5057764;28;20039;-76
2021/12/26 09:41:21;;;;;;;22.87;12.40;;;;;;;1.61;100.00;95305.22;5040905;28;20029;-79
2021/12/26 09:43:47;;;;;;;27.53;14.40;;;;;;;1.72;100.00;95306.94;5039832;28;20024;-80
2021/12/26 09:46:13;;;;;;;26.63;13.90;;;;;;;1.73;100.00;95308.56;5034835;28;20037;-80
2021/12/26 09:48:39;;;;;;;25.03;12.73;;;;;;;1.71;100.00;95308.72;5041942;28;20029;-77
2021/12/26 09:51:06;;;;;;;30.40;14.17;;;;;;;1.79;100.00;95313.25;5062105;28;20458;-77
2021/12/26 09:53:39;;;;;;;26.50;11.90;;;;;;;1.83;100.00;95312.03;5052918;28;20371;-78
2021/12/26 09:56:07;;;;;;;21.70;10.73;;;;;;;1.81;100.00;95296.63;5047640;28;20060;-78
2021/12/26 09:58:34;;;;;;;23.40;11.90;;;;;;;1.92;100.00;95295.72;5051604;28;20032;-77
2021/12/26 10:01:02;;;;;;;31.43;13.50;;;;;;;1.99;100.00;95301.22;5034625;28;20559;-77
2021/12/26 10:03:36;;;;;;;24.67;12.13;;;;;;;1.94;100.00;95295.56;5049386;28;20039;-77
2021/12/26 10:06:06;;;;;;;;;;;;;;;2.05;100.00;95298.91;5035012;28;20037;-78
2021/12/26 10:08:34;;;;;;;42.47;18.80;;;;;;;2.08;100.00;95292.66;5054792;28;20338;-82
2021/12/26 10:11:16;;;;;;;22.63;11.80;;;;;;;2.02;100.00;95291.41;5040348;28;20029;-82
2021/12/26 10:13:51;;;;;;;20.37;11.13;;;;;;;2.17;100.00;95280.66;5038727;28;20707;-82
2021/12/26 10:16:19;;;;;;;26.60;14.13;;;;;;;2.13;100.00;95291.28;5053317;28;20033;-81
2021/12/26 10:18:46;;;;;;;24.50;11.40;;;;;;;2.10;100.00;95285.56;5042259;28;20048;-82
2021/12/26 10:21:35;;;;;;;19.57;10.00;;;;;;;2.16;100.00;95282.44;5039657;28;20475;-82
2021/12/26 10:24:01;;;;;;;21.47;11.57;;;;;;;2.25;100.00;95275.66;5032371;28;20045;-81
2021/12/26 10:26:30;;;;;;;18.10;10.23;;;;;;;2.24;100.00;95281.78;5041351;28;20025;-81
2021/12/26 10:29:20;;;;;;;18.17;9.73;;;;;;;2.26;100.00;95285.06;5031981;28;20041;-81
2021/12/26 10:31:50;;;;;;;19.43;10.20;;;;;;;2.33;100.00;95278.41;5049927;28;20041;-81
2021/12/26 10:34:37;;;;;;;13.57;8.20;;;;;;;2.46;100.00;95268.59;5037644;28;20036;-77
2021/12/26 10:37:13;;;;;;;19.33;10.00;;;;;;;2.66;100.00;95261.69;5056929;28;20024;-79
2021/12/26 10:39:52;;;;;;;21.43;10.30;;;;;;;2.78;100.00;95264.94;5034788;28;20123;-80
2021/12/26 10:42:31;;;;;;;18.17;9.00;;;;;;;2.71;100.00;95280.25;5032508;28;20033;-79
2021/12/26 10:45:10;;;;;;;14.57;8.07;;;;;;;2.69;100.00;95273.56;5026427;28;20478;-80
2021/12/26 10:47:40;;;;;;;16.10;8.50;;;;;;;2.85;100.00;95268.66;5044134;28;20037;-81
2021/12/26 10:50:15;;;;;;;10.90;6.80;;;;;;;2.80;100.00;95266.47;5025802;28;20178;-79
2021/12/26 10:53:02;;;;;;;15.13;8.77;;;;;;;2.99;100.00;95264.84;5052976;28;20037;-80
2021/12/26 10:55:41;;;;;;;13.53;7.27;;;;;;;3.20;100.00;95268.13;5030312;28;20068;-81
2021/12/26 10:58:10;;;;;;;18.03;9.00;;;;;;;3.51;100.00;95268.75;5026406;28;20116;-80
2021/12/26 11:00:42;;;;;;;13.87;7.43;;;;;;;3.50;100.00;95261.94;5036662;28;20059;-80
2021/12/26 11:03:13;;;;;;;11.30;6.60;;;;;;;3.52;100.00;95260.03;5062679;28;20017;-80
2021/12/26 11:05:47;;;;;;;12.43;6.57;;;;;;;3.69;100.00;95258.47;5045593;28;20029;-80
2021/12/26 11:08:25;;;;;;;11.13;6.40;;;;;;;3.59;100.00;95255.06;5053050;28;20036;-80
2021/12/26 11:10:53;;;;;;;10.30;6.60;;;;;;;3.64;100.00;95254.66;5038030;28;20032;-78
2021/12/26 11:13:25;;;;;;;13.77;7.57;;;;;;;3.81;100.00;95258.28;5046621;28;20033;-79
2021/12/26 11:15:59;;;;;;;10.93;6.70;;;;;;;4.00;100.00;95247.81;5036179;28;20037;-80
2021/12/26 11:18:25;;;;;;;13.73;7.27;;;;;;;4.09;100.00;95256.53;5037764;28;20123;-79
2021/12/26 11:21:13;;;;;;;10.07;5.93;;;;;;;3.83;100.00;95257.19;5040894;28;20036;-80
2021/12/26 11:23:40;;;;;;;10.20;6.37;;;;;;;3.75;100.00;95251.88;5044504;28;20402;-81
2021/12/26 11:26:15;;;;;;;9.13;5.97;;;;;;;3.57;100.00;95250.97;5050892;28;20037;-83
2021/12/26 11:28:44;;;;;;;9.93;5.70;;;;;;;3.58;100.00;95256.03;5053664;28;20702;-80
2021/12/26 11:31:14;;;;;;;9.63;5.47;;;;;;;3.72;100.00;95254.75;5044156;28;20036;-83
2021/12/26 11:33:41;;;;;;;9.60;5.17;;;;;;;3.62;100.00;95256.56;5044935;28;20036;-83
2021/12/26 11:36:11;;;;;;;9.17;4.87;;;;;;;3.67;100.00;95256.97;5055735;28;20031;-80
2021/12/26 11:38:39;;;;;;;9.97;5.07;;;;;;;3.50;100.00;95246.31;5029709;28;20523;-81